Welcome to Des Moines Iowa Weather. I am an independent private personal weather station on the Northwest Side of Des Moines, Iowa. Just East of Windsor Heights and just West of Glendale . This site is also mobile friendly.

There are no active watches, warnings or advisories


Visit our other weather sites:

Historical Data

Weather Station Setup



Weather Underground History page Text

Daily Summary for January 20, 2018 Units:  Metric    English   Both
« Previous Day
Next Day »
Daily Weekly Monthly Yearly Custom
  High: Low: Average:
Temperature: 9.1 °C -2.8 °C 2.6 °C
Dew Point: 3.9 °C -3.9 °C -0.1 °C
Humidity: 93 % 62 % 83 %
Wind Speed: 8 km/h 0 km/h 0.6 km/h
Wind Gust: 11.3 km/h - -
Wind:- - SSE
Pressure: 1012.8 hPa 1008.4 hPa -
Precipitation: 0 mm    
Historical Graphs
 
 
Tabular Data for January 20, 2018
Time Temperature Dew Point Pressure Wind Wind Speed Wind Gust Humidity Rainfall Rate (Hourly)
00:00 2.5 °C -1.7 °C 1008.4 hPa Calm     75 % 0 mm
00:15 2.2 °C -1.7 °C 1008.4 hPa South 6.4 km/h 6.4 km/h 76 % 0 mm
00:30 2.1 °C -1.7 °C 1008.7 hPa Calm     77 % 0 mm
00:45 1.8 °C -1.7 °C 1008.7 hPa Calm     77 % 0 mm
01:00 1.7 °C -1.7 °C 1008.7 hPa Calm   1.6 km/h 78 % 0 mm
01:15 1.4 °C -2.2 °C 1008.7 hPa Calm     78 % 0 mm
01:30 1.2 °C -2.2 °C 1008.7 hPa Calm     78 % 0 mm
01:45 0.9 °C -2.2 °C 1008.7 hPa Calm     79 % 0 mm
02:00 0.6 °C -2.2 °C 1009 hPa Calm     81 % 0 mm
02:16 0.4 °C -2.2 °C 1009 hPa Calm     81 % 0 mm
02:31 0.1 °C -2.8 °C 1009.4 hPa Calm     81 % 0 mm
02:49 -0.2 °C -2.8 °C 1009 hPa Calm     82 % 0 mm
03:01 -0.4 °C -2.8 °C 1009.4 hPa Calm     83 % 0 mm
03:16 -0.6 °C -2.8 °C 1009.4 hPa Calm     84 % 0 mm
03:31 -0.8 °C -3.3 °C 1009.7 hPa Calm     84 % 0 mm
03:46 -1 °C -3.3 °C 1009.7 hPa Calm     85 % 0 mm
04:01 -1.2 °C -3.3 °C 1009.7 hPa Calm     85 % 0 mm
04:16 -1.4 °C -3.3 °C 1009.7 hPa Calm     86 % 0 mm
04:31 -1.6 °C -3.3 °C 1009.7 hPa Calm     86 % 0 mm
04:46 -1.7 °C -3.3 °C 1009.7 hPa Calm     87 % 0 mm
05:01 -1.7 °C -3.3 °C 1010 hPa Calm     87 % 0 mm
05:16 -1.8 °C -3.9 °C 1010 hPa Calm     87 % 0 mm
05:31 -2 °C -3.9 °C 1010.4 hPa Calm     88 % 0 mm
05:46 -2.1 °C -3.9 °C 1010.4 hPa Calm     88 % 0 mm
06:01 -2.3 °C -3.9 °C 1010.4 hPa Calm     88 % 0 mm
06:16 -2.3 °C -3.9 °C 1010.7 hPa Calm     89 % 0 mm
06:31 -2.4 °C -3.9 °C 1010.4 hPa Calm     89 % 0 mm
06:46 -2.5 °C -3.9 °C 1010.7 hPa Calm   3.2 km/h 89 % 0 mm
07:01 -2.5 °C -3.9 °C 1010.7 hPa Calm     90 % 0 mm
07:16 -2.6 °C -3.9 °C 1010.7 hPa Calm     90 % 0 mm
07:31 -2.6 °C -3.9 °C 1011.1 hPa Calm     90 % 0 mm
07:46 -2.6 °C -3.9 °C 1011.1 hPa Calm   3.2 km/h 90 % 0 mm
08:01 -2.6 °C -3.9 °C 1011.4 hPa Calm     90 % 0 mm
08:16 -2.8 °C -3.9 °C 1011.4 hPa Calm     90 % 0 mm
08:31 -2.8 °C -3.9 °C 1011.4 hPa Calm     91 % 0 mm
08:46 -2.4 °C -3.3 °C 1011.7 hPa Calm     92 % 0 mm
09:01 -1.8 °C -2.8 °C 1011.7 hPa Calm     92 % 0 mm
09:16 -0.9 °C -2.2 °C 1012.1 hPa Calm     92 % 0 mm
09:31 -0.1 °C -1.1 °C 1012.4 hPa Calm   3.2 km/h 92 % 0 mm
09:46 0.4 °C -0.6 °C 1012.8 hPa Calm     92 % 0 mm
10:01 1.2 °C 0 °C 1012.8 hPa Calm   1.6 km/h 90 % 0 mm
10:17 2.3 °C 0.6 °C 1012.8 hPa Calm   4.8 km/h 87 % 0 mm
10:32 3.5 °C 0 °C 1012.8 hPa Calm   4.8 km/h 77 % 0 mm
10:47 4.1 °C 0 °C 1012.4 hPa South 1.6 km/h 8 km/h 75 % 0 mm
11:02 4.5 °C 0 °C 1012.4 hPa South 6.4 km/h 6.4 km/h 73 % 0 mm
11:17 5.1 °C 0 °C 1012.4 hPa South 1.6 km/h 4.8 km/h 70 % 0 mm
11:32 5.6 °C 0 °C 1012.4 hPa Calm   6.4 km/h 69 % 0 mm
11:47 5.9 °C 0.6 °C 1012.1 hPa South 6.4 km/h 8 km/h 68 % 0 mm
12:02 6.5 °C 0.6 °C 1012.1 hPa Calm   8 km/h 65 % 0 mm
12:17 7 °C 0.6 °C 1011.7 hPa North 1.6 km/h 4.8 km/h 63 % 0 mm
12:32 7.6 °C 0.6 °C 1011.7 hPa Calm   4.8 km/h 62 % 0 mm
12:47 8.1 °C 1.1 °C 1011.4 hPa Calm   3.2 km/h 62 % 0 mm
13:02 8.2 °C 1.7 °C 1011.4 hPa NNE 1.6 km/h 4.8 km/h 63 % 0 mm
13:17 8.6 °C 2.2 °C 1011.1 hPa Calm   4.8 km/h 64 % 0 mm
13:32 8.6 °C 1.7 °C 1011.1 hPa Calm   8 km/h 63 % 0 mm
13:53 9.1 °C 2.2 °C 1010.7 hPa SSE 1.6 km/h 8 km/h 63 % 0 mm
14:03 9 °C 2.2 °C 1010.7 hPa Calm   3.2 km/h 64 % 0 mm
14:18 8.8 °C 2.8 °C 1011.1 hPa SSE 6.4 km/h 8 km/h 67 % 0 mm
14:33 8.4 °C 3.9 °C 1011.1 hPa South 6.4 km/h 8 km/h 72 % 0 mm
14:48 8.2 °C 3.9 °C 1011.1 hPa South 3.2 km/h 8 km/h 74 % 0 mm
15:03 7.6 °C 3.9 °C 1011.1 hPa SSW 4.8 km/h 9.7 km/h 77 % 0 mm
15:18 7.1 °C 3.9 °C 1011.4 hPa SSW 8 km/h 8 km/h 79 % 0 mm
15:33 6.7 °C 3.3 °C 1011.7 hPa SSW 3.2 km/h 8 km/h 80 % 0 mm
15:48 6.3 °C 3.3 °C 1011.7 hPa Calm   11.3 km/h 82 % 0 mm
16:03 6.2 °C 3.3 °C 1012.1 hPa South 3.2 km/h 6.4 km/h 82 % 0 mm
16:18 6.2 °C 3.3 °C 1011.7 hPa Calm   3.2 km/h 82 % 0 mm
16:33 6.2 °C 3.3 °C 1011.7 hPa Calm     81 % 0 mm
16:48 5.9 °C 3.3 °C 1011.7 hPa Calm     82 % 0 mm
17:03 5.7 °C 2.8 °C 1011.7 hPa Calm     81 % 0 mm
17:18 5.3 °C 2.2 °C 1012.1 hPa Calm     82 % 0 mm
17:33 4.9 °C 2.2 °C 1012.1 hPa Calm     83 % 0 mm
17:48 4.6 °C 1.7 °C 1012.4 hPa Calm     83 % 0 mm
18:03 4.1 °C 1.7 °C 1012.4 hPa Calm     83 % 0 mm
18:18 3.7 °C 1.1 °C 1012.4 hPa Calm     84 % 0 mm
18:33 3.3 °C 1.1 °C 1012.8 hPa Calm     86 % 0 mm
18:48 3 °C 1.1 °C 1012.8 hPa Calm     87 % 0 mm
19:03 2.8 °C 1.1 °C 1012.8 hPa Calm     88 % 0 mm
19:18 2.8 °C 1.1 °C 1012.8 hPa Calm     89 % 0 mm
19:33 3 °C 1.7 °C 1012.8 hPa Calm     90 % 0 mm
19:48 3.1 °C 1.7 °C 1012.8 hPa Calm     91 % 0 mm
20:03 3.2 °C 2.2 °C 1012.8 hPa Calm     91 % 0 mm
20:18 3.4 °C 2.2 °C 1012.8 hPa Calm     92 % 0 mm
20:33 3.7 °C 2.8 °C 1012.4 hPa Calm     92 % 0 mm
20:48 3.7 °C 2.8 °C 1012.4 hPa Calm     92 % 0 mm
21:03 3.6 °C 2.2 °C 1012.4 hPa Calm     92 % 0 mm
21:18 3.7 °C 2.8 °C 1012.4 hPa Calm     92 % 0 mm
21:33 3.6 °C 2.2 °C 1012.4 hPa Calm     92 % 0 mm
21:48 3.6 °C 2.2 °C 1012.8 hPa Calm     92 % 0 mm
22:03 3.6 °C 2.2 °C 1012.8 hPa Calm     92 % 0 mm
22:18 3.6 °C 2.2 °C 1012.8 hPa Calm     92 % 0 mm
22:33 3.6 °C 2.2 °C 1012.8 hPa Calm     92 % 0 mm
22:48 3.7 °C 2.8 °C 1012.4 hPa East 4.8 km/h 4.8 km/h 92 % 0 mm
23:03 3.9 °C 2.8 °C 1012.4 hPa Calm   4.8 km/h 93 % 0 mm
23:18 4 °C 2.8 °C 1012.4 hPa Calm     92 % 0 mm
23:33 4 °C 2.8 °C 1012.4 hPa Calm     92 % 0 mm
23:48 3.9 °C 2.8 °C 1012.8 hPa Calm     92 % 0 mm
Des Moines Weather and Climate
Compliments of Weather Underground - 3 mb

Script developed by  Jim McMurry - jmcmurry@mwt.net Adapted for the template by  Wim van der Kuil - Leuven-Template.eu

You find our weather info also at:

Weather Underground

Equipment we use:

Weather-station
Davis VP2 Plus

Weather-program
Davis Weatherlink.Com

Weather-server
iMac (Retina 4K, 21.5-inch, Late 2015)

Provider
Hostmonster.com

Davis VP2 Plus

Davis Weatherlink.Com

iMac (Retina 4K, 21.5-inch, Late 2015)

Hostmonster.com